sensor_id;sensor_type;location;lat;lon;timestamp;temperature;humidity
56725;DHT22;42608;52.776;6.968;2023-11-22T00:01:49;3.50;99.90
56725;DHT22;42608;52.776;6.968;2023-11-22T00:04:15;3.50;99.90
56725;DHT22;42608;52.776;6.968;2023-11-22T00:06:40;3.40;99.90
56725;DHT22;42608;52.776;6.968;2023-11-22T00:09:06;3.40;99.90
56725;DHT22;42608;52.776;6.968;2023-11-22T00:11:32;3.30;99.90
56725;DHT22;42608;52.776;6.968;2023-11-22T00:13:57;3.30;99.90
56725;DHT22;42608;52.776;6.968;2023-11-22T00:16:23;3.30;99.90
56725;DHT22;42608;52.776;6.968;2023-11-22T00:18:50;3.20;99.90
56725;DHT22;42608;52.776;6.968;2023-11-22T00:21:15;3.20;99.90
56725;DHT22;42608;52.776;6.968;2023-11-22T00:23:41;3.20;99.90
56725;DHT22;42608;52.776;6.968;2023-11-22T00:26:06;3.20;99.90
56725;DHT22;42608;52.776;6.968;2023-11-22T00:28:32;3.30;99.90
56725;DHT22;42608;52.776;6.968;2023-11-22T00:30:58;3.30;99.90
56725;DHT22;42608;52.776;6.968;2023-11-22T00:33:23;3.30;99.90
56725;DHT22;42608;52.776;6.968;2023-11-22T00:35:49;3.30;99.90
56725;DHT22;42608;52.776;6.968;2023-11-22T00:38:15;3.30;99.90
56725;DHT22;42608;52.776;6.968;2023-11-22T00:40:41;3.30;99.90
56725;DHT22;42608;52.776;6.968;2023-11-22T00:43:07;3.40;99.90
56725;DHT22;42608;52.776;6.968;2023-11-22T00:45:33;3.30;99.90
56725;DHT22;42608;52.776;6.968;2023-11-22T00:48:00;3.30;99.90
56725;DHT22;42608;52.776;6.968;2023-11-22T00:50:26;3.30;99.90
56725;DHT22;42608;52.776;6.968;2023-11-22T00:52:51;3.30;99.90
56725;DHT22;42608;52.776;6.968;2023-11-22T00:55:17;3.30;99.90
56725;DHT22;42608;52.776;6.968;2023-11-22T00:57:43;3.30;99.90
56725;DHT22;42608;52.776;6.968;2023-11-22T01:00:09;3.20;99.90
56725;DHT22;42608;52.776;6.968;2023-11-22T01:02:35;3.20;99.90
56725;DHT22;42608;52.776;6.968;2023-11-22T01:05:06;3.10;99.90
56725;DHT22;42608;52.776;6.968;2023-11-22T01:07:36;3.10;99.90
56725;DHT22;42608;52.776;6.968;2023-11-22T01:10:02;3.10;99.90
56725;DHT22;42608;52.776;6.968;2023-11-22T01:12:28;3.10;99.90
56725;DHT22;42608;52.776;6.968;2023-11-22T01:14:53;3.10;99.90
56725;DHT22;42608;52.776;6.968;2023-11-22T01:17:19;3.10;99.90
56725;DHT22;42608;52.776;6.968;2023-11-22T01:19:44;3.10;99.90
56725;DHT22;42608;52.776;6.968;2023-11-22T01:22:10;3.00;99.90
56725;DHT22;42608;52.776;6.968;2023-11-22T01:24:35;3.00;99.90
56725;DHT22;42608;52.776;6.968;2023-11-22T01:27:03;3.00;99.90
56725;DHT22;42608;52.776;6.968;2023-11-22T01:29:28;3.00;99.90
56725;DHT22;42608;52.776;6.968;2023-11-22T01:31:54;3.00;99.90
56725;DHT22;42608;52.776;6.968;2023-11-22T01:34:20;3.00;99.90
56725;DHT22;42608;52.776;6.968;2023-11-22T01:36:46;3.00;99.90
56725;DHT22;42608;52.776;6.968;2023-11-22T01:39:14;2.90;99.90
56725;DHT22;42608;52.776;6.968;2023-11-22T01:41:40;2.90;99.90
56725;DHT22;42608;52.776;6.968;2023-11-22T01:44:07;2.90;99.90
56725;DHT22;42608;52.776;6.968;2023-11-22T01:46:33;2.80;99.90
56725;DHT22;42608;52.776;6.968;2023-11-22T01:48:59;2.90;99.90
56725;DHT22;42608;52.776;6.968;2023-11-22T01:51:25;2.90;99.90
56725;DHT22;42608;52.776;6.968;2023-11-22T01:53:51;2.80;99.90
56725;DHT22;42608;52.776;6.968;2023-11-22T01:56:22;2.80;99.90
56725;DHT22;42608;52.776;6.968;2023-11-22T01:58:48;2.90;99.90
56725;DHT22;42608;52.776;6.968;2023-11-22T02:01:14;2.80;99.90
56725;DHT22;42608;52.776;6.968;2023-11-22T02:03:40;2.80;99.90
56725;DHT22;42608;52.776;6.968;2023-11-22T02:06:06;2.80;99.90
56725;DHT22;42608;52.776;6.968;2023-11-22T02:08:32;2.90;99.90
56725;DHT22;42608;52.776;6.968;2023-11-22T02:10:58;2.80;99.90
56725;DHT22;42608;52.776;6.968;2023-11-22T02:13:24;2.80;99.90
56725;DHT22;42608;52.776;6.968;2023-11-22T02:15:50;2.80;99.90
56725;DHT22;42608;52.776;6.968;2023-11-22T02:18:15;2.70;99.90
56725;DHT22;42608;52.776;6.968;2023-11-22T02:20:42;2.70;99.90
56725;DHT22;42608;52.776;6.968;2023-11-22T02:23:07;2.70;99.90
56725;DHT22;42608;52.776;6.968;2023-11-22T02:25:34;2.60;99.90
56725;DHT22;42608;52.776;6.968;2023-11-22T02:28:01;2.70;99.90
56725;DHT22;42608;52.776;6.968;2023-11-22T02:30:27;2.60;99.90
56725;DHT22;42608;52.776;6.968;2023-11-22T02:32:53;2.60;99.90
56725;DHT22;42608;52.776;6.968;2023-11-22T02:35:19;2.70;99.90
56725;DHT22;42608;52.776;6.968;2023-11-22T02:37:45;2.60;99.90
56725;DHT22;42608;52.776;6.968;2023-11-22T02:40:20;2.60;99.90
56725;DHT22;42608;52.776;6.968;2023-11-22T02:42:46;2.50;99.90
56725;DHT22;42608;52.776;6.968;2023-11-22T02:45:13;2.60;99.90
56725;DHT22;42608;52.776;6.968;2023-11-22T02:47:39;2.60;99.90
56725;DHT22;42608;52.776;6.968;2023-11-22T02:50:05;2.50;99.90
56725;DHT22;42608;52.776;6.968;2023-11-22T02:52:31;2.50;99.90
56725;DHT22;42608;52.776;6.968;2023-11-22T02:54:57;2.60;99.90
56725;DHT22;42608;52.776;6.968;2023-11-22T02:57:23;2.50;99.90
56725;DHT22;42608;52.776;6.968;2023-11-22T02:59:49;2.50;99.90
56725;DHT22;42608;52.776;6.968;2023-11-22T03:02:15;2.50;99.90
56725;DHT22;42608;52.776;6.968;2023-11-22T03:04:42;2.40;99.90
56725;DHT22;42608;52.776;6.968;2023-11-22T03:07:08;2.40;99.90
56725;DHT22;42608;52.776;6.968;2023-11-22T03:09:34;2.40;99.90
56725;DHT22;42608;52.776;6.968;2023-11-22T03:11:59;2.40;99.90
56725;DHT22;42608;52.776;6.968;2023-11-22T03:14:25;2.40;99.90
56725;DHT22;42608;52.776;6.968;2023-11-22T03:16:53;2.30;99.90
56725;DHT22;42608;52.776;6.968;2023-11-22T03:19:19;2.30;99.90
56725;DHT22;42608;52.776;6.968;2023-11-22T03:21:44;2.30;99.90
56725;DHT22;42608;52.776;6.968;2023-11-22T03:24:11;2.30;99.90
56725;DHT22;42608;52.776;6.968;2023-11-22T03:26:36;2.30;99.90
56725;DHT22;42608;52.776;6.968;2023-11-22T03:29:02;2.30;99.90
56725;DHT22;42608;52.776;6.968;2023-11-22T03:31:28;2.30;99.90
56725;DHT22;42608;52.776;6.968;2023-11-22T03:33:54;2.30;99.90
56725;DHT22;42608;52.776;6.968;2023-11-22T03:36:20;2.30;99.90
56725;DHT22;42608;52.776;6.968;2023-11-22T03:38:46;2.30;99.90
56725;DHT22;42608;52.776;6.968;2023-11-22T03:41:11;2.30;99.90
56725;DHT22;42608;52.776;6.968;2023-11-22T03:43:37;2.20;99.90
56725;DHT22;42608;52.776;6.968;2023-11-22T03:46:03;2.20;99.90
56725;DHT22;42608;52.776;6.968;2023-11-22T03:48:28;2.20;99.90
56725;DHT22;42608;52.776;6.968;2023-11-22T03:50:54;2.20;99.90
56725;DHT22;42608;52.776;6.968;2023-11-22T03:53:20;2.20;99.90
56725;DHT22;42608;52.776;6.968;2023-11-22T03:55:47;2.20;99.90
56725;DHT22;42608;52.776;6.968;2023-11-22T03:58:13;2.30;99.90
56725;DHT22;42608;52.776;6.968;2023-11-22T04:00:38;2.30;99.90
56725;DHT22;42608;52.776;6.968;2023-11-22T04:03:04;2.20;99.90
56725;DHT22;42608;52.776;6.968;2023-11-22T04:05:29;2.30;99.90
56725;DHT22;42608;52.776;6.968;2023-11-22T04:07:55;2.30;99.90
56725;DHT22;42608;52.776;6.968;2023-11-22T04:10:22;2.30;99.90
56725;DHT22;42608;52.776;6.968;2023-11-22T04:12:47;2.30;99.90
56725;DHT22;42608;52.776;6.968;2023-11-22T04:15:13;2.30;99.90
56725;DHT22;42608;52.776;6.968;2023-11-22T04:17:39;2.40;99.90
56725;DHT22;42608;52.776;6.968;2023-11-22T04:20:06;2.30;99.90
56725;DHT22;42608;52.776;6.968;2023-11-22T04:22:36;2.40;99.90
56725;DHT22;42608;52.776;6.968;2023-11-22T04:25:02;2.30;99.90
56725;DHT22;42608;52.776;6.968;2023-11-22T04:27:28;2.30;99.90
56725;DHT22;42608;52.776;6.968;2023-11-22T04:29:53;2.30;99.90
56725;DHT22;42608;52.776;6.968;2023-11-22T04:32:20;2.30;99.90
56725;DHT22;42608;52.776;6.968;2023-11-22T04:34:47;2.30;99.90
56725;DHT22;42608;52.776;6.968;2023-11-22T04:37:13;2.30;99.90
56725;DHT22;42608;52.776;6.968;2023-11-22T04:39:38;2.20;99.90
56725;DHT22;42608;52.776;6.968;2023-11-22T04:42:04;2.20;99.90
56725;DHT22;42608;52.776;6.968;2023-11-22T04:44:30;2.20;99.90
56725;DHT22;42608;52.776;6.968;2023-11-22T04:46:57;2.10;99.90
56725;DHT22;42608;52.776;6.968;2023-11-22T04:49:25;2.10;99.90
56725;DHT22;42608;52.776;6.968;2023-11-22T04:51:50;2.10;99.90
56725;DHT22;42608;52.776;6.968;2023-11-22T04:54:16;2.10;99.90
56725;DHT22;42608;52.776;6.968;2023-11-22T04:56:41;2.10;99.90
56725;DHT22;42608;52.776;6.968;2023-11-22T04:59:07;2.00;99.90
56725;DHT22;42608;52.776;6.968;2023-11-22T05:01:33;2.00;99.90
56725;DHT22;42608;52.776;6.968;2023-11-22T05:03:59;2.00;99.90
56725;DHT22;42608;52.776;6.968;2023-11-22T05:06:24;2.00;99.90
56725;DHT22;42608;52.776;6.968;2023-11-22T05:08:51;2.00;99.90
56725;DHT22;42608;52.776;6.968;2023-11-22T05:11:17;2.00;99.90
56725;DHT22;42608;52.776;6.968;2023-11-22T05:13:42;2.00;99.90
56725;DHT22;42608;52.776;6.968;2023-11-22T05:16:08;2.00;99.90
56725;DHT22;42608;52.776;6.968;2023-11-22T05:18:34;1.90;99.90
56725;DHT22;42608;52.776;6.968;2023-11-22T05:21:04;1.90;99.90
56725;DHT22;42608;52.776;6.968;2023-11-22T05:23:30;1.90;99.90
56725;DHT22;42608;52.776;6.968;2023-11-22T05:25:57;1.90;99.90
56725;DHT22;42608;52.776;6.968;2023-11-22T05:28:25;1.90;99.90
56725;DHT22;42608;52.776;6.968;2023-11-22T05:30:50;1.90;99.90
56725;DHT22;42608;52.776;6.968;2023-11-22T05:33:16;1.90;99.90
56725;DHT22;42608;52.776;6.968;2023-11-22T05:35:42;1.90;99.90
56725;DHT22;42608;52.776;6.968;2023-11-22T05:38:08;1.90;99.90
56725;DHT22;42608;52.776;6.968;2023-11-22T05:40:34;1.90;99.90
56725;DHT22;42608;52.776;6.968;2023-11-22T05:42:59;1.90;99.90
56725;DHT22;42608;52.776;6.968;2023-11-22T05:45:25;1.80;99.90
56725;DHT22;42608;52.776;6.968;2023-11-22T05:47:51;1.80;99.90
56725;DHT22;42608;52.776;6.968;2023-11-22T05:50:16;1.80;99.90
56725;DHT22;42608;52.776;6.968;2023-11-22T05:52:45;1.80;99.90
56725;DHT22;42608;52.776;6.968;2023-11-22T05:55:10;1.80;99.90
56725;DHT22;42608;52.776;6.968;2023-11-22T05:57:39;1.80;99.90
56725;DHT22;42608;52.776;6.968;2023-11-22T06:00:05;1.80;99.90
56725;DHT22;42608;52.776;6.968;2023-11-22T06:02:31;1.70;99.90
56725;DHT22;42608;52.776;6.968;2023-11-22T06:04:57;1.80;99.90
56725;DHT22;42608;52.776;6.968;2023-11-22T06:07:22;1.70;99.90
56725;DHT22;42608;52.776;6.968;2023-11-22T06:09:48;1.70;99.90
56725;DHT22;42608;52.776;6.968;2023-11-22T06:12:14;1.70;99.90
56725;DHT22;42608;52.776;6.968;2023-11-22T06:14:39;1.80;99.90
56725;DHT22;42608;52.776;6.968;2023-11-22T06:17:05;1.70;99.90
56725;DHT22;42608;52.776;6.968;2023-11-22T06:19:30;1.70;99.90
56725;DHT22;42608;52.776;6.968;2023-11-22T06:21:56;1.70;99.90
56725;DHT22;42608;52.776;6.968;2023-11-22T06:24:21;1.80;99.90
56725;DHT22;42608;52.776;6.968;2023-11-22T06:26:47;1.70;99.90
56725;DHT22;42608;52.776;6.968;2023-11-22T06:29:13;1.70;99.90
56725;DHT22;42608;52.776;6.968;2023-11-22T06:31:39;1.80;99.90
56725;DHT22;42608;52.776;6.968;2023-11-22T06:34:05;1.80;99.90
56725;DHT22;42608;52.776;6.968;2023-11-22T06:36:31;1.70;99.90
56725;DHT22;42608;52.776;6.968;2023-11-22T06:38:56;1.70;99.90
56725;DHT22;42608;52.776;6.968;2023-11-22T06:41:22;1.80;99.90
56725;DHT22;42608;52.776;6.968;2023-11-22T06:43:48;1.80;99.90
56725;DHT22;42608;52.776;6.968;2023-11-22T06:46:13;1.80;99.90
56725;DHT22;42608;52.776;6.968;2023-11-22T06:48:42;1.80;99.90
56725;DHT22;42608;52.776;6.968;2023-11-22T06:51:09;1.80;99.90
56725;DHT22;42608;52.776;6.968;2023-11-22T06:53:34;1.80;99.90
56725;DHT22;42608;52.776;6.968;2023-11-22T06:56:00;1.80;99.90
56725;DHT22;42608;52.776;6.968;2023-11-22T06:58:26;1.80;99.90
56725;DHT22;42608;52.776;6.968;2023-11-22T07:00:52;1.80;99.90
56725;DHT22;42608;52.776;6.968;2023-11-22T07:03:17;1.80;99.90
56725;DHT22;42608;52.776;6.968;2023-11-22T07:05:43;1.80;99.90
56725;DHT22;42608;52.776;6.968;2023-11-22T07:08:09;1.80;99.90
56725;DHT22;42608;52.776;6.968;2023-11-22T07:10:36;1.80;99.90
56725;DHT22;42608;52.776;6.968;2023-11-22T07:13:02;1.80;99.90
56725;DHT22;42608;52.776;6.968;2023-11-22T07:15:27;1.80;99.90
56725;DHT22;42608;52.776;6.968;2023-11-22T07:17:53;1.80;99.90
56725;DHT22;42608;52.776;6.968;2023-11-22T07:20:19;1.80;99.90
56725;DHT22;42608;52.776;6.968;2023-11-22T07:22:45;1.80;99.90
56725;DHT22;42608;52.776;6.968;2023-11-22T07:25:11;1.80;99.90
56725;DHT22;42608;52.776;6.968;2023-11-22T07:27:46;1.80;99.90
56725;DHT22;42608;52.776;6.968;2023-11-22T07:30:15;1.80;99.90
56725;DHT22;42608;52.776;6.968;2023-11-22T07:32:41;1.80;99.90
56725;DHT22;42608;52.776;6.968;2023-11-22T07:35:07;1.80;99.90
56725;DHT22;42608;52.776;6.968;2023-11-22T07:37:37;1.80;99.90
56725;DHT22;42608;52.776;6.968;2023-11-22T07:40:08;1.80;99.90
56725;DHT22;42608;52.776;6.968;2023-11-22T07:42:37;1.70;99.90
56725;DHT22;42608;52.776;6.968;2023-11-22T07:45:03;1.70;99.90
56725;DHT22;42608;52.776;6.968;2023-11-22T07:47:29;1.70;99.90
56725;DHT22;42608;52.776;6.968;2023-11-22T07:49:54;1.70;99.90
56725;DHT22;42608;52.776;6.968;2023-11-22T07:52:23;1.70;99.90
56725;DHT22;42608;52.776;6.968;2023-11-22T07:54:57;1.80;99.90
56725;DHT22;42608;52.776;6.968;2023-11-22T07:57:23;1.80;99.90
56725;DHT22;42608;52.776;6.968;2023-11-22T07:59:49;1.80;99.90
56725;DHT22;42608;52.776;6.968;2023-11-22T08:02:15;1.80;99.90
56725;DHT22;42608;52.776;6.968;2023-11-22T08:04:44;1.80;99.90
56725;DHT22;42608;52.776;6.968;2023-11-22T08:07:10;1.90;99.90
56725;DHT22;42608;52.776;6.968;2023-11-22T08:09:36;1.90;99.90
56725;DHT22;42608;52.776;6.968;2023-11-22T08:12:02;1.90;99.90
56725;DHT22;42608;52.776;6.968;2023-11-22T08:14:28;1.90;99.90
56725;DHT22;42608;52.776;6.968;2023-11-22T08:16:54;1.90;99.90
56725;DHT22;42608;52.776;6.968;2023-11-22T08:19:19;1.90;99.90
56725;DHT22;42608;52.776;6.968;2023-11-22T08:21:45;2.00;99.90
56725;DHT22;42608;52.776;6.968;2023-11-22T08:24:11;2.00;99.90
56725;DHT22;42608;52.776;6.968;2023-11-22T08:26:38;2.00;99.90
56725;DHT22;42608;52.776;6.968;2023-11-22T08:29:04;2.00;99.90
56725;DHT22;42608;52.776;6.968;2023-11-22T08:31:30;2.00;99.90
56725;DHT22;42608;52.776;6.968;2023-11-22T08:33:55;2.10;99.90
56725;DHT22;42608;52.776;6.968;2023-11-22T08:36:22;2.10;99.90
56725;DHT22;42608;52.776;6.968;2023-11-22T08:38:49;2.10;99.90
56725;DHT22;42608;52.776;6.968;2023-11-22T08:41:14;2.10;99.90
56725;DHT22;42608;52.776;6.968;2023-11-22T08:43:40;2.10;99.90
56725;DHT22;42608;52.776;6.968;2023-11-22T08:46:08;2.10;99.90
56725;DHT22;42608;52.776;6.968;2023-11-22T08:48:34;2.10;99.90
56725;DHT22;42608;52.776;6.968;2023-11-22T08:51:00;2.20;99.90
56725;DHT22;42608;52.776;6.968;2023-11-22T08:53:26;2.20;99.90
56725;DHT22;42608;52.776;6.968;2023-11-22T08:55:51;2.20;99.90
56725;DHT22;42608;52.776;6.968;2023-11-22T08:58:20;2.30;99.90
56725;DHT22;42608;52.776;6.968;2023-11-22T09:00:46;2.30;99.90
56725;DHT22;42608;52.776;6.968;2023-11-22T09:03:12;2.30;99.90
56725;DHT22;42608;52.776;6.968;2023-11-22T09:05:39;2.30;99.90
56725;DHT22;42608;52.776;6.968;2023-11-22T09:08:04;2.40;99.90
56725;DHT22;42608;52.776;6.968;2023-11-22T09:10:30;2.40;99.90
56725;DHT22;42608;52.776;6.968;2023-11-22T09:12:55;2.40;99.90
56725;DHT22;42608;52.776;6.968;2023-11-22T09:15:24;2.50;99.90
56725;DHT22;42608;52.776;6.968;2023-11-22T09:17:52;2.50;99.90
56725;DHT22;42608;52.776;6.968;2023-11-22T09:20:19;2.50;99.90
56725;DHT22;42608;52.776;6.968;2023-11-22T09:22:45;2.50;99.90
56725;DHT22;42608;52.776;6.968;2023-11-22T09:25:14;2.50;99.90
56725;DHT22;42608;52.776;6.968;2023-11-22T09:27:42;2.60;99.90
56725;DHT22;42608;52.776;6.968;2023-11-22T09:30:07;2.60;99.90
56725;DHT22;42608;52.776;6.968;2023-11-22T09:32:44;2.60;99.90
56725;DHT22;42608;52.776;6.968;2023-11-22T09:35:10;2.70;99.90
56725;DHT22;42608;52.776;6.968;2023-11-22T09:37:35;2.70;99.90
56725;DHT22;42608;52.776;6.968;2023-11-22T09:40:03;2.70;99.90
56725;DHT22;42608;52.776;6.968;2023-11-22T09:42:34;2.70;99.90
56725;DHT22;42608;52.776;6.968;2023-11-22T09:44:59;2.70;99.90
56725;DHT22;42608;52.776;6.968;2023-11-22T09:47:25;2.80;99.90
56725;DHT22;42608;52.776;6.968;2023-11-22T09:49:52;2.80;99.90
56725;DHT22;42608;52.776;6.968;2023-11-22T09:52:20;2.80;99.90
56725;DHT22;42608;52.776;6.968;2023-11-22T09:54:48;2.90;99.90
56725;DHT22;42608;52.776;6.968;2023-11-22T09:57:16;2.90;99.90
56725;DHT22;42608;52.776;6.968;2023-11-22T09:59:42;2.90;99.90
56725;DHT22;42608;52.776;6.968;2023-11-22T10:02:08;3.00;99.90
56725;DHT22;42608;52.776;6.968;2023-11-22T10:04:34;3.00;99.90
56725;DHT22;42608;52.776;6.968;2023-11-22T10:07:00;3.00;99.90
56725;DHT22;42608;52.776;6.968;2023-11-22T10:09:25;3.00;99.90
56725;DHT22;42608;52.776;6.968;2023-11-22T10:12:01;3.10;99.90
56725;DHT22;42608;52.776;6.968;2023-11-22T10:14:26;3.10;99.90
56725;DHT22;42608;52.776;6.968;2023-11-22T10:16:59;3.10;99.90
56725;DHT22;42608;52.776;6.968;2023-11-22T10:19:25;3.20;99.90
56725;DHT22;42608;52.776;6.968;2023-11-22T10:22:01;3.20;99.90
56725;DHT22;42608;52.776;6.968;2023-11-22T10:24:29;3.30;99.90
56725;DHT22;42608;52.776;6.968;2023-11-22T10:26:55;3.30;99.90
56725;DHT22;42608;52.776;6.968;2023-11-22T10:29:24;3.40;99.90
56725;DHT22;42608;52.776;6.968;2023-11-22T10:31:50;3.40;99.90
56725;DHT22;42608;52.776;6.968;2023-11-22T10:34:20;3.40;99.90
56725;DHT22;42608;52.776;6.968;2023-11-22T10:36:47;3.40;99.90
56725;DHT22;42608;52.776;6.968;2023-11-22T10:39:12;3.40;99.90
56725;DHT22;42608;52.776;6.968;2023-11-22T10:41:41;3.50;99.90
56725;DHT22;42608;52.776;6.968;2023-11-22T10:44:08;3.50;99.90
56725;DHT22;42608;52.776;6.968;2023-11-22T10:46:33;3.50;99.90
56725;DHT22;42608;52.776;6.968;2023-11-22T10:48:59;3.60;99.90
56725;DHT22;42608;52.776;6.968;2023-11-22T10:51:30;3.60;99.90
56725;DHT22;42608;52.776;6.968;2023-11-22T10:53:59;3.60;99.90
56725;DHT22;42608;52.776;6.968;2023-11-22T10:56:26;3.60;99.90
56725;DHT22;42608;52.776;6.968;2023-11-22T10:58:56;3.60;99.90
56725;DHT22;42608;52.776;6.968;2023-11-22T11:01:25;3.60;99.90
56725;DHT22;42608;52.776;6.968;2023-11-22T11:04:08;3.70;99.90
56725;DHT22;42608;52.776;6.968;2023-11-22T11:06:35;3.70;99.90
56725;DHT22;42608;52.776;6.968;2023-11-22T11:09:02;3.70;99.90
56725;DHT22;42608;52.776;6.968;2023-11-22T11:11:35;3.70;99.90
56725;DHT22;42608;52.776;6.968;2023-11-22T11:14:01;3.70;99.90
56725;DHT22;42608;52.776;6.968;2023-11-22T11:16:28;3.70;99.90
56725;DHT22;42608;52.776;6.968;2023-11-22T11:18:56;3.70;99.90
56725;DHT22;42608;52.776;6.968;2023-11-22T11:21:23;3.70;99.90
56725;DHT22;42608;52.776;6.968;2023-11-22T11:23:51;3.70;99.90
56725;DHT22;42608;52.776;6.968;2023-11-22T11:26:18;3.70;99.90
56725;DHT22;42608;52.776;6.968;2023-11-22T11:28:47;3.70;99.90
56725;DHT22;42608;52.776;6.968;2023-11-22T11:31:13;3.80;99.90
56725;DHT22;42608;52.776;6.968;2023-11-22T11:36:24;3.90;99.90
56725;DHT22;42608;52.776;6.968;2023-11-22T11:38:56;4.00;99.90
56725;DHT22;42608;52.776;6.968;2023-11-22T11:41:28;4.00;99.90
56725;DHT22;42608;52.776;6.968;2023-11-22T11:43:54;4.00;99.90
56725;DHT22;42608;52.776;6.968;2023-11-22T11:46:20;4.10;99.90
56725;DHT22;42608;52.776;6.968;2023-11-22T11:48:48;4.10;99.90
56725;DHT22;42608;52.776;6.968;2023-11-22T11:51:14;4.20;99.90
56725;DHT22;42608;52.776;6.968;2023-11-22T11:53:41;4.20;99.90
56725;DHT22;42608;52.776;6.968;2023-11-22T11:56:06;4.20;99.90
56725;DHT22;42608;52.776;6.968;2023-11-22T11:58:33;4.20;99.90
56725;DHT22;42608;52.776;6.968;2023-11-22T12:00:59;4.20;99.90
56725;DHT22;42608;52.776;6.968;2023-11-22T12:03:25;4.30;99.90
56725;DHT22;42608;52.776;6.968;2023-11-22T12:05:50;4.40;99.90
56725;DHT22;42608;52.776;6.968;2023-11-22T12:08:16;4.40;99.90
56725;DHT22;42608;52.776;6.968;2023-11-22T12:10:42;4.40;99.90
56725;DHT22;42608;52.776;6.968;2023-11-22T12:13:08;4.40;99.90
56725;DHT22;42608;52.776;6.968;2023-11-22T12:15:34;4.50;99.90
56725;DHT22;42608;52.776;6.968;2023-11-22T12:18:00;4.50;99.90
56725;DHT22;42608;52.776;6.968;2023-11-22T12:20:26;4.60;99.90
56725;DHT22;42608;52.776;6.968;2023-11-22T12:22:59;4.60;99.90
56725;DHT22;42608;52.776;6.968;2023-11-22T12:25:29;4.70;99.90
56725;DHT22;42608;52.776;6.968;2023-11-22T12:27:55;4.70;99.90
56725;DHT22;42608;52.776;6.968;2023-11-22T12:30:36;4.70;99.90
56725;DHT22;42608;52.776;6.968;2023-11-22T12:33:03;4.70;99.90
56725;DHT22;42608;52.776;6.968;2023-11-22T12:35:30;4.80;99.90
56725;DHT22;42608;52.776;6.968;2023-11-22T12:37:55;4.80;99.90
56725;DHT22;42608;52.776;6.968;2023-11-22T12:40:21;4.80;99.90
56725;DHT22;42608;52.776;6.968;2023-11-22T12:42:50;4.80;99.90
56725;DHT22;42608;52.776;6.968;2023-11-22T12:45:22;4.80;99.90
56725;DHT22;42608;52.776;6.968;2023-11-22T12:47:52;4.80;99.90
56725;DHT22;42608;52.776;6.968;2023-11-22T12:50:37;4.80;99.90
56725;DHT22;42608;52.776;6.968;2023-11-22T12:53:09;4.80;99.90
56725;DHT22;42608;52.776;6.968;2023-11-22T12:55:36;4.80;99.90
56725;DHT22;42608;52.776;6.968;2023-11-22T12:58:02;4.80;99.90
56725;DHT22;42608;52.776;6.968;2023-11-22T13:00:29;4.80;99.90
56725;DHT22;42608;52.776;6.968;2023-11-22T13:02:55;4.80;99.90
56725;DHT22;42608;52.776;6.968;2023-11-22T13:05:22;4.70;99.90
56725;DHT22;42608;52.776;6.968;2023-11-22T13:07:47;4.70;99.90
56725;DHT22;42608;52.776;6.968;2023-11-22T13:10:13;4.80;99.90
56725;DHT22;42608;52.776;6.968;2023-11-22T13:12:44;4.70;99.90
56725;DHT22;42608;52.776;6.968;2023-11-22T13:15:11;4.70;99.90
56725;DHT22;42608;52.776;6.968;2023-11-22T13:17:37;4.70;99.90
56725;DHT22;42608;52.776;6.968;2023-11-22T13:20:07;4.70;99.90
56725;DHT22;42608;52.776;6.968;2023-11-22T13:22:40;4.70;99.90
56725;DHT22;42608;52.776;6.968;2023-11-22T13:25:10;4.70;99.90
56725;DHT22;42608;52.776;6.968;2023-11-22T13:27:41;4.70;99.90
56725;DHT22;42608;52.776;6.968;2023-11-22T13:30:07;4.70;99.90
56725;DHT22;42608;52.776;6.968;2023-11-22T13:32:32;4.70;99.90
56725;DHT22;42608;52.776;6.968;2023-11-22T13:34:58;4.70;99.90
56725;DHT22;42608;52.776;6.968;2023-11-22T13:37:24;4.70;99.90
56725;DHT22;42608;52.776;6.968;2023-11-22T13:39:50;4.80;99.90
56725;DHT22;42608;52.776;6.968;2023-11-22T13:42:16;4.80;99.90
56725;DHT22;42608;52.776;6.968;2023-11-22T13:44:42;4.70;99.90
56725;DHT22;42608;52.776;6.968;2023-11-22T13:47:09;4.70;99.90
56725;DHT22;42608;52.776;6.968;2023-11-22T13:49:35;4.80;99.90
56725;DHT22;42608;52.776;6.968;2023-11-22T13:52:02;4.80;99.90
56725;DHT22;42608;52.776;6.968;2023-11-22T13:54:28;4.80;99.90
56725;DHT22;42608;52.776;6.968;2023-11-22T13:56:53;4.70;99.90
56725;DHT22;42608;52.776;6.968;2023-11-22T13:59:19;4.80;99.90
56725;DHT22;42608;52.776;6.968;2023-11-22T14:01:45;4.80;99.90
56725;DHT22;42608;52.776;6.968;2023-11-22T14:04:11;4.80;99.90
56725;DHT22;42608;52.776;6.968;2023-11-22T14:06:36;4.80;99.90
56725;DHT22;42608;52.776;6.968;2023-11-22T14:09:02;4.80;99.90
56725;DHT22;42608;52.776;6.968;2023-11-22T14:11:28;4.80;99.90
56725;DHT22;42608;52.776;6.968;2023-11-22T14:13:55;4.80;99.90
56725;DHT22;42608;52.776;6.968;2023-11-22T14:16:20;4.80;99.90
56725;DHT22;42608;52.776;6.968;2023-11-22T14:18:46;4.80;99.90
56725;DHT22;42608;52.776;6.968;2023-11-22T14:21:11;4.80;99.90
56725;DHT22;42608;52.776;6.968;2023-11-22T14:23:37;4.80;99.90
56725;DHT22;42608;52.776;6.968;2023-11-22T14:26:03;4.80;99.90
56725;DHT22;42608;52.776;6.968;2023-11-22T14:28:28;4.80;99.90
56725;DHT22;42608;52.776;6.968;2023-11-22T14:31:01;4.80;99.90
56725;DHT22;42608;52.776;6.968;2023-11-22T14:33:27;4.80;99.90
56725;DHT22;42608;52.776;6.968;2023-11-22T14:35:57;4.80;99.90
56725;DHT22;42608;52.776;6.968;2023-11-22T14:38:23;4.80;99.90
56725;DHT22;42608;52.776;6.968;2023-11-22T14:40:50;4.80;99.90
56725;DHT22;42608;52.776;6.968;2023-11-22T14:43:15;4.80;99.90
56725;DHT22;42608;52.776;6.968;2023-11-22T14:45:41;4.80;99.90
56725;DHT22;42608;52.776;6.968;2023-11-22T14:48:07;4.80;99.90
56725;DHT22;42608;52.776;6.968;2023-11-22T14:50:34;4.80;99.90
56725;DHT22;42608;52.776;6.968;2023-11-22T14:52:59;4.80;99.90
56725;DHT22;42608;52.776;6.968;2023-11-22T14:55:25;4.80;99.90
56725;DHT22;42608;52.776;6.968;2023-11-22T14:57:51;4.80;99.90
56725;DHT22;42608;52.776;6.968;2023-11-22T15:00:19;4.80;99.90
56725;DHT22;42608;52.776;6.968;2023-11-22T15:02:45;4.90;99.90
56725;DHT22;42608;52.776;6.968;2023-11-22T15:05:18;4.80;99.90
56725;DHT22;42608;52.776;6.968;2023-11-22T15:07:44;4.80;99.90
56725;DHT22;42608;52.776;6.968;2023-11-22T15:10:10;4.80;99.90
56725;DHT22;42608;52.776;6.968;2023-11-22T15:12:36;4.80;99.90
56725;DHT22;42608;52.776;6.968;2023-11-22T15:15:02;4.80;99.90
56725;DHT22;42608;52.776;6.968;2023-11-22T15:17:28;4.80;99.90
56725;DHT22;42608;52.776;6.968;2023-11-22T15:19:54;4.80;99.90
56725;DHT22;42608;52.776;6.968;2023-11-22T15:22:20;4.80;99.90
56725;DHT22;42608;52.776;6.968;2023-11-22T15:24:46;4.80;99.90
56725;DHT22;42608;52.776;6.968;2023-11-22T15:27:11;4.70;99.90
56725;DHT22;42608;52.776;6.968;2023-11-22T15:29:37;4.70;99.90
56725;DHT22;42608;52.776;6.968;2023-11-22T15:32:03;4.80;99.90
56725;DHT22;42608;52.776;6.968;2023-11-22T15:34:30;4.80;99.90
56725;DHT22;42608;52.776;6.968;2023-11-22T15:36:55;4.70;99.90
56725;DHT22;42608;52.776;6.968;2023-11-22T15:39:21;4.70;99.90
56725;DHT22;42608;52.776;6.968;2023-11-22T15:41:47;4.70;99.90
56725;DHT22;42608;52.776;6.968;2023-11-22T15:44:13;4.80;99.90